createdAt,value
2023-04-10T00:01:52.876Z,8.06
2023-04-10T00:04:19.478Z,7.97
2023-04-10T00:06:46.257Z,7.85
2023-04-10T00:09:12.647Z,7.85
2023-04-10T00:11:39.011Z,7.78
2023-04-10T00:14:05.386Z,7.69
2023-04-10T00:16:31.869Z,7.77
2023-04-10T00:18:58.320Z,7.78
2023-04-10T00:21:24.698Z,7.58
2023-04-10T00:23:51.271Z,7.65
2023-04-10T00:26:18.639Z,7.79
2023-04-10T00:28:45.196Z,7.78
2023-04-10T00:31:11.552Z,7.77
2023-04-10T00:33:37.928Z,7.76
2023-04-10T00:36:04.557Z,7.61
2023-04-10T00:38:31.027Z,7.80
2023-04-10T00:40:57.443Z,7.79
2023-04-10T00:43:24.298Z,7.73
2023-04-10T00:45:50.945Z,7.72
2023-04-10T00:48:17.446Z,7.79
2023-04-10T00:50:43.893Z,7.60
2023-04-10T00:53:10.286Z,7.61
2023-04-10T00:55:36.897Z,7.74
2023-04-10T00:58:03.529Z,7.68
2023-04-10T01:00:30.154Z,7.76
2023-04-10T01:02:56.913Z,7.71
2023-04-10T01:05:23.932Z,7.72
2023-04-10T01:08:18.520Z,7.51
2023-04-10T01:10:52.576Z,7.60
2023-04-10T01:13:27.984Z,7.41
2023-04-10T01:16:23.652Z,7.40
2023-04-10T01:19:27.053Z,7.39
2023-04-10T01:21:54.916Z,7.61
2023-04-10T01:24:35.916Z,7.36
2023-04-10T01:27:27.047Z,7.49
2023-04-10T01:29:56.579Z,7.47
2023-04-10T01:32:24.019Z,7.36
2023-04-10T01:34:51.991Z,7.42
2023-04-10T01:37:23.582Z,7.32
2023-04-10T01:39:59.683Z,7.37
2023-04-10T01:42:28.490Z,7.39
2023-04-10T01:44:55.758Z,7.33
2023-04-10T01:47:22.462Z,7.20
2023-04-10T01:49:49.032Z,7.20
2023-04-10T01:52:15.768Z,7.09
2023-04-10T01:54:43.328Z,6.99
2023-04-10T01:57:10.894Z,6.88
2023-04-10T01:59:38.661Z,6.70
2023-04-10T02:02:07.584Z,6.75
2023-04-10T02:04:34.339Z,6.49
2023-04-10T02:07:09.244Z,6.10
2023-04-10T02:09:55.762Z,6.31
2023-04-10T02:12:28.771Z,6.26
2023-04-10T02:14:56.146Z,6.24
2023-04-10T02:17:27.745Z,6.36
2023-04-10T02:19:55.862Z,6.29
2023-04-10T02:22:23.253Z,5.98
2023-04-10T02:24:50.074Z,5.98
2023-04-10T02:27:16.507Z,6.04
2023-04-10T02:29:42.877Z,6.21
2023-04-10T02:32:09.434Z,6.30
2023-04-10T02:34:35.803Z,6.31
2023-04-10T02:37:02.197Z,6.28
2023-04-10T02:39:28.669Z,6.16
2023-04-10T02:41:55.054Z,6.04
2023-04-10T02:44:21.442Z,5.85
2023-04-10T02:46:47.986Z,5.88
2023-04-10T02:49:14.420Z,5.98
2023-04-10T02:51:40.862Z,6.10
2023-04-10T02:54:07.218Z,5.94
2023-04-10T02:56:34.830Z,5.85
2023-04-10T02:59:01.499Z,5.89
2023-04-10T03:01:27.930Z,5.96
2023-04-10T03:03:54.746Z,6.03
2023-04-10T03:06:23.519Z,6.14
2023-04-10T03:08:49.890Z,6.19
2023-04-10T03:11:16.292Z,6.33
2023-04-10T03:13:42.682Z,6.33
2023-04-10T03:16:09.075Z,6.23
2023-04-10T03:18:35.586Z,6.23
2023-04-10T03:21:04.871Z,6.29
2023-04-10T03:23:31.303Z,6.24
2023-04-10T03:25:57.965Z,6.32
2023-04-10T03:28:24.367Z,6.16
2023-04-10T03:30:51.054Z,6.07
2023-04-10T03:33:17.467Z,5.89
2023-04-10T03:35:46.227Z,5.88
2023-04-10T03:38:12.610Z,5.73
2023-04-10T03:40:39.037Z,5.71
2023-04-10T03:43:05.680Z,5.82
2023-04-10T03:45:32.089Z,5.71
2023-04-10T03:47:59.027Z,5.69
2023-04-10T03:50:25.482Z,5.66
2023-04-10T03:52:52.047Z,5.61
2023-04-10T03:55:21.327Z,5.36
2023-04-10T03:57:48.923Z,5.35
2023-04-10T04:00:16.612Z,5.18
2023-04-10T04:02:43.202Z,5.20
2023-04-10T04:05:09.935Z,5.25
2023-04-10T04:07:36.410Z,5.32
2023-04-10T04:10:02.963Z,5.38
2023-04-10T04:12:29.348Z,5.43
2023-04-10T04:14:55.722Z,5.53
2023-04-10T04:17:22.141Z,5.55
2023-04-10T04:19:48.582Z,5.36
2023-04-10T04:22:15.229Z,5.38
2023-04-10T04:24:41.624Z,5.27
2023-04-10T04:27:07.996Z,5.20
2023-04-10T04:29:34.375Z,5.07
2023-04-10T04:32:00.782Z,5.13
2023-04-10T04:34:27.164Z,5.18
2023-04-10T04:36:53.607Z,5.23
2023-04-10T04:39:21.024Z,5.27
2023-04-10T04:41:47.401Z,5.29
2023-04-10T04:44:13.808Z,5.35
2023-04-10T04:46:41.897Z,5.28
2023-04-10T04:49:10.659Z,5.03
2023-04-10T04:51:38.125Z,4.88
2023-04-10T04:54:04.809Z,4.84
2023-04-10T04:56:31.234Z,4.81
2023-04-10T04:58:57.590Z,4.82
2023-04-10T05:01:24.479Z,4.55
2023-04-10T05:03:50.914Z,4.86
2023-04-10T05:06:18.645Z,4.79
2023-04-10T05:08:45.279Z,4.83
2023-04-10T05:11:11.708Z,4.70
2023-04-10T05:13:38.105Z,4.84
2023-04-10T05:16:04.722Z,5.06
2023-04-10T05:18:31.286Z,5.13
2023-04-10T05:20:57.697Z,5.23
2023-04-10T05:23:24.070Z,5.22
2023-04-10T05:25:50.614Z,5.24
2023-04-10T05:28:17.001Z,5.30
2023-04-10T05:30:43.446Z,5.29
2023-04-10T05:33:09.833Z,5.10
2023-04-10T05:35:36.219Z,5.10
2023-04-10T05:38:02.621Z,5.11
2023-04-10T05:40:29.249Z,5.02
2023-04-10T05:42:55.634Z,5.08
2023-04-10T05:45:21.998Z,5.23
2023-04-10T05:47:48.460Z,5.16
2023-04-10T05:50:15.204Z,5.17
2023-04-10T05:52:41.586Z,5.26
2023-04-10T05:55:08.500Z,5.46
2023-04-10T05:57:34.886Z,5.73
2023-04-10T06:00:01.414Z,5.98
2023-04-10T06:02:28.019Z,5.86
2023-04-10T06:04:54.840Z,6.01
2023-04-10T06:07:21.373Z,6.00
2023-04-10T06:09:47.747Z,6.34
2023-04-10T06:12:14.118Z,6.36
2023-04-10T06:14:40.560Z,6.55
2023-04-10T06:17:07.082Z,6.59
2023-04-10T06:19:33.454Z,6.80
2023-04-10T06:21:59.813Z,6.93
2023-04-10T06:24:26.248Z,6.97
2023-04-10T06:26:52.628Z,6.97
2023-04-10T06:29:18.992Z,7.12
2023-04-10T06:31:45.631Z,7.48
2023-04-10T06:34:12.081Z,7.57
2023-04-10T06:36:38.568Z,7.79
2023-04-10T06:39:05.037Z,7.94
2023-04-10T06:41:31.502Z,8.21
2023-04-10T06:43:57.866Z,8.43
2023-04-10T06:46:24.286Z,8.59
2023-04-10T06:48:50.847Z,8.70
2023-04-10T06:51:17.242Z,8.79
2023-04-10T06:53:43.647Z,8.71
2023-04-10T06:56:10.581Z,8.83
2023-04-10T06:58:37.109Z,9.14
2023-04-10T07:01:04.636Z,9.46
2023-04-10T07:03:32.566Z,9.41
2023-04-10T07:05:59.793Z,9.69
2023-04-10T07:08:26.149Z,9.45
2023-04-10T07:10:52.534Z,9.74
2023-04-10T07:13:18.925Z,9.96
2023-04-10T07:15:45.290Z,10.14
2023-04-10T07:18:11.743Z,10.44
2023-04-10T07:20:38.170Z,10.61
2023-04-10T07:23:04.552Z,10.90
2023-04-10T07:25:30.924Z,11.18
2023-04-10T07:27:57.386Z,11.37
2023-04-10T07:30:23.779Z,11.44
2023-04-10T07:32:50.335Z,11.69
2023-04-10T07:35:16.927Z,11.94
2023-04-10T07:37:44.160Z,11.97
2023-04-10T07:40:10.805Z,12.08
2023-04-10T07:42:37.224Z,12.05
2023-04-10T07:45:03.749Z,12.35
2023-04-10T07:47:30.310Z,12.46
2023-04-10T07:49:56.723Z,12.64
2023-04-10T07:52:23.139Z,12.76
2023-04-10T07:54:49.506Z,12.59
2023-04-10T07:57:16.227Z,12.73
2023-04-10T07:59:42.594Z,12.84
2023-04-10T08:02:09.167Z,12.98
2023-04-10T08:04:36.136Z,12.98
2023-04-10T08:07:02.806Z,13.27
2023-04-10T08:09:29.217Z,13.23
2023-04-10T08:11:56.612Z,13.36
2023-04-10T08:14:22.994Z,13.50
2023-04-10T08:16:49.451Z,13.59
2023-04-10T08:19:15.906Z,13.50
2023-04-10T08:21:42.362Z,13.53
2023-04-10T08:24:08.814Z,13.88
2023-04-10T08:26:35.309Z,14.10
2023-04-10T08:29:01.993Z,13.92
2023-04-10T08:31:29.386Z,13.84
2023-04-10T08:33:57.013Z,13.78
2023-04-10T08:36:23.792Z,13.85
2023-04-10T08:38:50.286Z,14.12
2023-04-10T08:41:18.207Z,14.45
2023-04-10T08:43:46.035Z,14.68
2023-04-10T08:46:14.316Z,14.82
2023-04-10T08:49:02.754Z,14.85
2023-04-10T08:51:32.863Z,15.20
2023-04-10T08:54:06.296Z,14.93
2023-04-10T08:56:33.254Z,15.06
2023-04-10T08:59:02.195Z,14.91
2023-04-10T09:01:28.899Z,15.15
2023-04-10T09:03:55.448Z,15.35
2023-04-10T09:06:22.195Z,15.42
2023-04-10T09:08:48.583Z,15.35
2023-04-10T09:11:14.974Z,15.42
2023-04-10T09:13:43.845Z,15.60
2023-04-10T09:16:11.183Z,15.50
2023-04-10T09:18:42.419Z,15.80
2023-04-10T09:21:18.354Z,16.11
2023-04-10T09:23:45.667Z,16.12
2023-04-10T09:26:28.315Z,16.14
2023-04-10T09:29:03.183Z,16.47
2023-04-10T09:31:32.700Z,16.63
2023-04-10T09:34:09.006Z,16.69
2023-04-10T09:36:36.776Z,16.57
2023-04-10T09:39:04.346Z,16.40
2023-04-10T09:41:30.849Z,16.60
2023-04-10T09:44:07.723Z,16.73
2023-04-10T09:46:35.058Z,16.54
2023-04-10T09:49:04.546Z,16.71
2023-04-10T09:51:35.575Z,17.13
2023-04-10T09:54:02.819Z,17.23
2023-04-10T09:56:30.412Z,17.24
2023-04-10T09:58:58.536Z,17.57
2023-04-10T10:01:29.934Z,17.75
2023-04-10T10:03:58.268Z,17.59
2023-04-10T10:06:25.986Z,16.92
2023-04-10T10:08:52.878Z,16.85
2023-04-10T10:11:22.648Z,17.21
2023-04-10T10:13:54.683Z,17.51
2023-04-10T10:16:21.841Z,17.87
2023-04-10T10:19:13.414Z,17.96
2023-04-10T10:21:40.324Z,17.91
2023-04-10T10:24:10.506Z,17.98
2023-04-10T10:26:39.365Z,17.72
2023-04-10T10:29:10.718Z,17.73
2023-04-10T10:31:37.975Z,17.55
2023-04-10T10:34:06.915Z,17.45
2023-04-10T10:36:34.090Z,17.63
2023-04-10T10:39:22.841Z,17.92
2023-04-10T10:41:55.956Z,17.51
2023-04-10T10:44:46.538Z,17.38
2023-04-10T10:47:18.697Z,17.41
2023-04-10T10:49:51.445Z,17.46
2023-04-10T10:52:36.952Z,17.62
2023-04-10T10:55:22.049Z,17.84
2023-04-10T10:57:50.252Z,17.86
2023-04-10T11:00:16.925Z,17.82
2023-04-10T11:02:43.702Z,18.39
2023-04-10T11:05:10.511Z,18.16
2023-04-10T11:07:58.748Z,17.80
2023-04-10T11:11:02.847Z,17.76
2023-04-10T11:13:29.393Z,18.08
2023-04-10T11:15:57.332Z,18.22
2023-04-10T11:18:45.579Z,18.19
2023-04-10T11:21:22.549Z,18.29
2023-04-10T11:23:52.732Z,18.29
2023-04-10T11:26:38.154Z,18.59
2023-04-10T11:29:19.878Z,18.97
2023-04-10T11:31:46.895Z,19.13
2023-04-10T11:34:15.503Z,19.51
2023-04-10T11:36:43.585Z,19.67
2023-04-10T11:39:13.214Z,19.39
2023-04-10T11:41:47.504Z,19.92
2023-04-10T11:44:16.786Z,19.79
2023-04-10T11:46:47.446Z,20.04
2023-04-10T11:49:26.399Z,20.71
2023-04-10T11:51:53.186Z,20.66
2023-04-10T11:54:24.888Z,19.47
2023-04-10T11:57:02.589Z,19.15
2023-04-10T11:59:30.285Z,19.44
2023-04-10T12:02:11.011Z,18.98
2023-04-10T12:04:37.970Z,18.89
2023-04-10T12:07:04.521Z,19.07
2023-04-10T12:09:31.017Z,19.19
2023-04-10T12:12:03.502Z,19.18
2023-04-10T12:14:34.125Z,19.06
2023-04-10T12:17:01.624Z,19.62
2023-04-10T12:19:28.190Z,19.78
2023-04-10T12:21:55.957Z,19.87
2023-04-10T12:24:48.013Z,20.00
2023-04-10T12:27:26.409Z,20.15
2023-04-10T12:29:54.233Z,20.61
2023-04-10T12:32:21.146Z,21.23
2023-04-10T12:34:52.078Z,21.72
2023-04-10T12:37:19.339Z,21.94
2023-04-10T12:39:45.698Z,22.50
2023-04-10T12:42:19.515Z,21.83
2023-04-10T12:44:59.544Z,20.73
2023-04-10T12:47:27.422Z,20.90
2023-04-10T12:50:04.471Z,20.83
2023-04-10T12:52:31.182Z,20.70
2023-04-10T12:55:15.767Z,20.73
2023-04-10T12:57:43.721Z,20.96
2023-04-10T13:00:11.851Z,20.75
2023-04-10T13:02:39.538Z,20.57
2023-04-10T13:05:06.817Z,20.70
2023-04-10T13:07:33.510Z,21.36
2023-04-10T13:10:00.219Z,22.33
2023-04-10T13:12:27.192Z,22.75
2023-04-10T13:14:54.398Z,23.46
2023-04-10T13:17:21.721Z,23.17
2023-04-10T13:19:48.260Z,23.58
2023-04-10T13:22:14.644Z,23.19
2023-04-10T13:24:41.812Z,24.03
2023-04-10T13:27:09.526Z,24.31
2023-04-10T13:29:36.467Z,23.56
2023-04-10T13:32:05.329Z,23.32
2023-04-10T13:34:32.591Z,22.28
2023-04-10T13:36:59.418Z,22.05
2023-04-10T13:39:29.365Z,21.69
2023-04-10T13:41:56.714Z,20.60
2023-04-10T13:44:23.299Z,19.94
2023-04-10T13:46:49.687Z,19.43
2023-04-10T13:49:20.135Z,18.93
2023-04-10T13:51:46.848Z,19.15
2023-04-10T13:54:13.782Z,18.82
2023-04-10T13:56:41.138Z,18.67
2023-04-10T13:59:07.678Z,18.71
2023-04-10T14:01:34.112Z,18.75
2023-04-10T14:04:00.612Z,18.84
2023-04-10T14:06:27.273Z,19.17
2023-04-10T14:08:54.147Z,18.89
2023-04-10T14:11:21.531Z,18.81
2023-04-10T14:13:47.891Z,18.91
2023-04-10T14:16:14.615Z,19.18
2023-04-10T14:18:40.999Z,19.19
2023-04-10T14:21:07.482Z,19.20
2023-04-10T14:23:33.907Z,19.77
2023-04-10T14:26:00.401Z,19.84
2023-04-10T14:28:26.813Z,19.38
2023-04-10T14:30:53.216Z,19.39
2023-04-10T14:33:20.184Z,19.33
2023-04-10T14:35:47.357Z,19.32
2023-04-10T14:38:13.791Z,19.54
2023-04-10T14:40:43.614Z,19.33
2023-04-10T14:43:09.995Z,19.09
2023-04-10T14:45:36.387Z,19.04
2023-04-10T14:48:03.066Z,19.07
2023-04-10T14:50:31.675Z,19.03
2023-04-10T14:53:00.002Z,19.13
2023-04-10T14:55:28.950Z,19.15
2023-04-10T14:57:57.254Z,18.92
2023-04-10T15:00:25.230Z,18.59
2023-04-10T15:02:51.935Z,18.41
2023-04-10T15:05:18.754Z,18.29
2023-04-10T15:07:45.182Z,18.35
2023-04-10T15:10:11.629Z,18.36
2023-04-10T15:12:38.029Z,18.26
2023-04-10T15:15:04.927Z,18.09
2023-04-10T15:17:31.305Z,17.82
2023-04-10T15:19:57.790Z,18.00
2023-04-10T15:22:24.189Z,18.01
2023-04-10T15:24:51.196Z,18.01
2023-04-10T15:27:23.554Z,17.80
2023-04-10T15:29:49.952Z,17.81
2023-04-10T15:32:16.386Z,17.79
2023-04-10T15:34:44.251Z,17.66
2023-04-10T15:37:11.529Z,17.57
2023-04-10T15:39:37.924Z,17.63
2023-04-10T15:42:08.139Z,17.69
2023-04-10T15:44:34.686Z,17.43
2023-04-10T15:47:01.138Z,17.56
2023-04-10T15:49:37.155Z,17.51
2023-04-10T15:52:06.156Z,17.46
2023-04-10T15:54:35.748Z,17.64
2023-04-10T15:57:02.982Z,17.42
2023-04-10T15:59:29.600Z,17.44
2023-04-10T16:01:56.063Z,17.54
2023-04-10T16:04:22.935Z,17.52
2023-04-10T16:06:49.435Z,17.54
2023-04-10T16:09:25.494Z,17.43
2023-04-10T16:11:53.068Z,17.33
2023-04-10T16:14:19.513Z,17.26
2023-04-10T16:16:45.975Z,17.34
2023-04-10T16:19:12.366Z,17.39
2023-04-10T16:21:38.790Z,17.47
2023-04-10T16:24:05.596Z,17.33
2023-04-10T16:26:32.019Z,17.37
2023-04-10T16:28:58.412Z,17.57
2023-04-10T16:31:24.888Z,17.64
2023-04-10T16:33:51.296Z,17.64
2023-04-10T16:36:17.690Z,17.92
2023-04-10T16:38:44.498Z,18.08
2023-04-10T16:41:12.315Z,18.12
2023-04-10T16:43:38.748Z,18.20
2023-04-10T16:46:05.784Z,18.11
2023-04-10T16:48:33.697Z,17.84
2023-04-10T16:51:05.954Z,17.75
2023-04-10T16:53:33.419Z,17.69
2023-04-10T16:56:02.856Z,17.54
2023-04-10T16:58:30.803Z,17.40
2023-04-10T17:00:57.354Z,17.35
2023-04-10T17:03:23.810Z,17.14
2023-04-10T17:05:50.342Z,17.15
2023-04-10T17:08:16.728Z,17.13
2023-04-10T17:10:43.131Z,17.08
2023-04-10T17:13:09.505Z,16.96
2023-04-10T17:15:35.898Z,16.95
2023-04-10T17:18:02.426Z,16.91
2023-04-10T17:20:28.875Z,16.94
2023-04-10T17:22:55.266Z,16.85
2023-04-10T17:25:21.659Z,16.87
2023-04-10T17:27:48.032Z,16.77
2023-04-10T17:30:14.469Z,16.67
2023-04-10T17:32:41.724Z,16.63
2023-04-10T17:35:08.324Z,16.49
2023-04-10T17:37:34.761Z,16.41
2023-04-10T17:40:01.275Z,16.27
2023-04-10T17:42:27.705Z,16.35
2023-04-10T17:44:54.116Z,16.45
2023-04-10T17:47:20.837Z,16.44
2023-04-10T17:49:47.243Z,16.03
2023-04-10T17:52:13.608Z,16.01
2023-04-10T17:54:40.151Z,15.74
2023-04-10T17:57:06.554Z,15.71
2023-04-10T17:59:32.976Z,15.63
2023-04-10T18:01:59.422Z,15.52
2023-04-10T18:04:25.834Z,15.36
2023-04-10T18:06:52.239Z,15.38
2023-04-10T18:09:18.637Z,15.47
2023-04-10T18:11:45.111Z,15.26
2023-04-10T18:14:11.545Z,15.09
2023-04-10T18:16:38.060Z,15.05
2023-04-10T18:19:04.497Z,15.05
2023-04-10T18:21:31.442Z,14.91
2023-04-10T18:23:57.829Z,14.72
2023-04-10T18:26:24.401Z,14.51
2023-04-10T18:28:50.856Z,14.31
2023-04-10T18:31:18.988Z,14.07
2023-04-10T18:33:48.569Z,13.89
2023-04-10T18:36:24.056Z,13.75
2023-04-10T18:38:51.527Z,13.79
2023-04-10T18:41:18.005Z,13.61
2023-04-10T18:43:54.250Z,13.44
2023-04-10T18:46:32.119Z,13.39
2023-04-10T18:48:58.590Z,13.25
2023-04-10T18:51:26.408Z,13.23
2023-04-10T18:53:53.020Z,13.09
2023-04-10T18:56:19.611Z,13.15
2023-04-10T18:58:48.306Z,13.10
2023-04-10T19:01:17.509Z,13.22
2023-04-10T19:03:44.283Z,13.07
2023-04-10T19:06:10.939Z,13.12
2023-04-10T19:08:37.769Z,13.08
2023-04-10T19:11:05.875Z,12.92
2023-04-10T19:13:32.922Z,13.04
2023-04-10T19:16:03.056Z,13.21
2023-04-10T19:18:29.486Z,13.13
2023-04-10T19:20:55.868Z,13.21
2023-04-10T19:23:25.564Z,13.27
2023-04-10T19:25:53.312Z,13.26
2023-04-10T19:28:19.722Z,13.26
2023-04-10T19:30:46.158Z,13.26
2023-04-10T19:33:12.585Z,13.18
2023-04-10T19:35:39.027Z,13.16
2023-04-10T19:38:05.425Z,12.97
2023-04-10T19:40:32.117Z,12.65
2023-04-10T19:43:01.897Z,12.43
2023-04-10T19:45:29.351Z,12.38
2023-04-10T19:47:56.601Z,12.22
2023-04-10T19:50:23.141Z,12.21
2023-04-10T19:52:49.668Z,12.18
2023-04-10T19:55:18.694Z,12.30
2023-04-10T19:57:45.482Z,12.26
2023-04-10T20:00:12.571Z,12.25
2023-04-10T20:02:39.339Z,12.04
2023-04-10T20:05:06.302Z,11.97
2023-04-10T20:07:32.750Z,11.84
2023-04-10T20:10:02.456Z,11.80
2023-04-10T20:12:30.285Z,11.65
2023-04-10T20:14:56.750Z,11.63
2023-04-10T20:17:23.202Z,11.54
2023-04-10T20:19:49.649Z,11.32
2023-04-10T20:22:16.131Z,11.35
2023-04-10T20:24:42.560Z,11.34
2023-04-10T20:27:08.925Z,11.40
2023-04-10T20:29:35.294Z,11.24
2023-04-10T20:32:01.819Z,11.38
2023-04-10T20:34:28.282Z,11.12
2023-04-10T20:36:54.724Z,11.18
2023-04-10T20:39:22.551Z,11.32
2023-04-10T20:41:48.949Z,11.13
2023-04-10T20:44:15.381Z,11.28
2023-04-10T20:46:41.820Z,11.19
2023-04-10T20:49:10.174Z,11.14
2023-04-10T20:51:38.326Z,11.11
2023-04-10T20:54:06.358Z,10.95
2023-04-10T20:56:40.556Z,10.84
2023-04-10T20:59:09.989Z,10.81
2023-04-10T21:01:36.508Z,10.93
2023-04-10T21:04:02.990Z,10.91
2023-04-10T21:06:29.682Z,10.98
2023-04-10T21:08:56.213Z,10.99
2023-04-10T21:11:22.729Z,10.98
2023-04-10T21:13:49.322Z,10.87
2023-04-10T21:16:15.838Z,10.81
2023-04-10T21:18:42.312Z,10.55
2023-04-10T21:21:08.915Z,10.61
2023-04-10T21:23:35.307Z,10.49
2023-04-10T21:26:01.801Z,10.31
2023-04-10T21:28:28.206Z,10.50
2023-04-10T21:30:54.657Z,10.40
2023-04-10T21:33:21.041Z,10.47
2023-04-10T21:35:47.668Z,10.25
2023-04-10T21:38:14.396Z,10.18
2023-04-10T21:40:40.827Z,10.20
2023-04-10T21:43:07.198Z,10.20
2023-04-10T21:45:34.732Z,10.05
2023-04-10T21:48:01.513Z,10.26
2023-04-10T21:50:27.978Z,10.42
2023-04-10T21:52:54.424Z,10.59
2023-04-10T21:55:20.886Z,10.46
2023-04-10T21:57:47.271Z,10.56
2023-04-10T22:00:14.140Z,10.48
2023-04-10T22:02:41.681Z,10.47
2023-04-10T22:05:08.219Z,10.57
2023-04-10T22:07:34.589Z,10.48
2023-04-10T22:10:00.995Z,10.42
2023-04-10T22:12:27.422Z,10.47
2023-04-10T22:14:53.798Z,10.38
2023-04-10T22:17:20.234Z,10.59
2023-04-10T22:19:46.639Z,10.68
2023-04-10T22:22:13.047Z,10.33
2023-04-10T22:24:39.427Z,10.30
2023-04-10T22:27:05.788Z,10.16
2023-04-10T22:29:33.765Z,10.02
2023-04-10T22:32:00.230Z,10.01
2023-04-10T22:34:26.631Z,10.09
2023-04-10T22:36:53.036Z,10.03
2023-04-10T22:39:19.514Z,9.98
2023-04-10T22:41:46.086Z,10.10
2023-04-10T22:44:12.487Z,10.40
2023-04-10T22:46:38.921Z,10.21
2023-04-10T22:49:05.328Z,10.22
2023-04-10T22:51:32.003Z,9.99
2023-04-10T22:53:58.399Z,10.02
2023-04-10T22:56:26.557Z,10.15
2023-04-10T22:58:53.341Z,10.30
2023-04-10T23:01:20.180Z,10.25
2023-04-10T23:03:46.833Z,10.05
2023-04-10T23:06:13.221Z,10.21
2023-04-10T23:08:39.633Z,10.15
2023-04-10T23:11:06.312Z,10.08
2023-04-10T23:13:32.711Z,9.92
2023-04-10T23:15:59.106Z,9.60
2023-04-10T23:18:25.530Z,9.64
2023-04-10T23:20:51.924Z,9.72
2023-04-10T23:23:18.353Z,9.74
2023-04-10T23:25:44.740Z,9.87
2023-04-10T23:28:11.140Z,9.78
2023-04-10T23:30:37.543Z,9.93
2023-04-10T23:33:04.043Z,9.94
2023-04-10T23:35:30.496Z,9.80
2023-04-10T23:37:57.637Z,9.76
2023-04-10T23:40:24.053Z,9.80
2023-04-10T23:42:50.434Z,9.87
2023-04-10T23:45:16.923Z,9.88
2023-04-10T23:47:43.350Z,9.92
2023-04-10T23:50:10.333Z,9.89
2023-04-10T23:52:36.712Z,9.86
2023-04-10T23:55:03.260Z,9.88
2023-04-10T23:57:29.616Z,10.01
2023-04-10T23:59:56.045Z,10.00
